createdAt,value
2018-05-18T00:02:00.217Z,64.10
2018-05-18T00:04:27.623Z,63.87
2018-05-18T00:06:55.049Z,64.19
2018-05-18T00:09:22.457Z,63.78
2018-05-18T00:11:49.883Z,63.76
2018-05-18T00:14:17.293Z,63.79
2018-05-18T00:16:44.717Z,64.00
2018-05-18T00:19:12.124Z,64.03
2018-05-18T00:21:39.549Z,64.42
2018-05-18T00:24:06.981Z,64.38
2018-05-18T00:26:34.414Z,64.09
2018-05-18T00:29:01.820Z,63.96
2018-05-18T00:31:29.243Z,64.46
2018-05-18T00:33:56.653Z,64.18
2018-05-18T00:36:24.079Z,64.37
2018-05-18T00:38:51.489Z,64.87
2018-05-18T00:41:18.915Z,64.58
2018-05-18T00:43:46.320Z,64.54
2018-05-18T00:46:13.736Z,65.04
2018-05-18T00:48:41.150Z,64.68
2018-05-18T00:51:08.577Z,64.79
2018-05-18T00:53:35.990Z,64.49
2018-05-18T00:56:03.420Z,64.73
2018-05-18T00:58:30.832Z,64.43
2018-05-18T01:00:58.237Z,64.75
2018-05-18T01:03:25.687Z,64.52
2018-05-18T01:05:53.092Z,64.37
2018-05-18T01:08:20.512Z,64.41
2018-05-18T01:10:47.933Z,64.50
2018-05-18T01:13:15.361Z,64.85
2018-05-18T01:15:42.785Z,65.10
2018-05-18T01:18:10.217Z,65.23
2018-05-18T01:20:37.629Z,65.38
2018-05-18T01:23:05.049Z,65.19
2018-05-18T01:25:32.471Z,65.10
2018-05-18T01:27:59.893Z,64.98
2018-05-18T01:30:27.303Z,64.91
2018-05-18T01:32:54.724Z,64.91
2018-05-18T01:35:22.137Z,64.93
2018-05-18T01:37:49.548Z,65.11
2018-05-18T01:40:16.957Z,64.79
2018-05-18T01:42:44.372Z,64.87
2018-05-18T01:45:11.789Z,64.92
2018-05-18T01:47:39.210Z,65.23
2018-05-18T01:50:06.624Z,65.16
2018-05-18T01:52:34.040Z,65.25
2018-05-18T01:55:01.453Z,65.33
2018-05-18T01:57:28.877Z,65.29
2018-05-18T01:59:56.292Z,65.51
2018-05-18T02:02:23.713Z,65.58
2018-05-18T02:04:51.131Z,65.36
2018-05-18T02:07:18.560Z,65.45
2018-05-18T02:09:45.969Z,65.63
2018-05-18T02:12:13.384Z,65.50
2018-05-18T02:14:40.796Z,65.64
2018-05-18T02:17:08.212Z,65.69
2018-05-18T02:19:35.628Z,65.75
2018-05-18T02:22:03.044Z,65.48
2018-05-18T02:24:30.463Z,65.79
2018-05-18T02:26:57.889Z,65.36
2018-05-18T02:29:25.298Z,65.07
2018-05-18T02:31:52.725Z,65.05
2018-05-18T02:34:20.136Z,64.98
2018-05-18T02:36:47.550Z,65.00
2018-05-18T02:39:14.958Z,65.22
2018-05-18T02:41:42.370Z,65.80
2018-05-18T02:44:09.797Z,65.94
2018-05-18T02:46:37.209Z,66.09
2018-05-18T02:49:04.631Z,66.26
2018-05-18T02:51:32.045Z,66.58
2018-05-18T02:53:59.457Z,66.63
2018-05-18T02:56:26.868Z,66.34
2018-05-18T02:58:54.331Z,66.40
2018-05-18T03:01:21.741Z,66.68
2018-05-18T03:03:49.157Z,66.67
2018-05-18T03:06:16.573Z,66.93
2018-05-18T03:08:43.991Z,67.17
2018-05-18T03:11:11.397Z,67.21
2018-05-18T03:13:38.823Z,67.35
2018-05-18T03:16:06.238Z,67.13
2018-05-18T03:18:33.654Z,67.30
2018-05-18T03:21:01.086Z,67.26
2018-05-18T03:23:28.486Z,67.21
2018-05-18T03:25:55.887Z,67.07
2018-05-18T03:28:23.313Z,67.10
2018-05-18T03:30:50.748Z,67.06
2018-05-18T03:33:18.173Z,67.02
2018-05-18T03:35:45.588Z,67.20
2018-05-18T03:38:13.004Z,67.05
2018-05-18T03:40:40.422Z,66.97
2018-05-18T03:43:07.833Z,66.89
2018-05-18T03:45:35.244Z,67.12
2018-05-18T03:48:02.656Z,67.34
2018-05-18T03:50:30.073Z,67.17
2018-05-18T03:52:57.488Z,67.20
2018-05-18T03:55:24.898Z,67.08
2018-05-18T03:57:52.317Z,67.05
2018-05-18T04:00:19.728Z,67.06
2018-05-18T04:02:59.135Z,67.13
2018-05-18T04:05:38.287Z,67.22
2018-05-18T04:08:17.427Z,67.32
2018-05-18T04:10:44.844Z,67.35
2018-05-18T04:13:12.264Z,67.38
2018-05-18T04:15:39.679Z,67.37
2018-05-18T04:18:07.100Z,67.60
2018-05-18T04:20:34.508Z,67.51
2018-05-18T04:23:01.942Z,67.42
2018-05-18T04:25:29.349Z,67.25
2018-05-18T04:27:56.778Z,67.15
2018-05-18T04:30:24.239Z,67.14
2018-05-18T04:32:51.601Z,67.14
2018-05-18T04:35:19.029Z,67.13
2018-05-18T04:37:46.456Z,67.30
2018-05-18T04:40:13.888Z,67.36
2018-05-18T04:42:41.300Z,67.19
2018-05-18T04:45:08.732Z,67.09
2018-05-18T04:47:36.140Z,66.96
2018-05-18T04:50:03.560Z,66.90
2018-05-18T04:52:30.989Z,66.61
2018-05-18T04:54:58.413Z,66.69
2018-05-18T04:57:25.836Z,66.69
2018-05-18T04:59:53.265Z,66.48
2018-05-18T05:02:20.668Z,66.63
2018-05-18T05:04:48.102Z,66.49
2018-05-18T05:07:15.517Z,66.33
2018-05-18T05:09:42.934Z,66.46
2018-05-18T05:12:10.348Z,66.38
2018-05-18T05:14:37.773Z,66.45
2018-05-18T05:17:05.220Z,66.52
2018-05-18T05:19:32.649Z,66.72
2018-05-18T05:22:00.068Z,66.66
2018-05-18T05:24:27.481Z,66.61
2018-05-18T05:26:54.888Z,66.51
2018-05-18T05:29:22.304Z,66.53
2018-05-18T05:31:49.716Z,66.57
2018-05-18T05:34:17.129Z,66.49
2018-05-18T05:36:44.592Z,66.39
2018-05-18T05:39:11.960Z,66.37
2018-05-18T05:41:39.372Z,66.68
2018-05-18T05:44:06.796Z,66.82
2018-05-18T05:46:34.208Z,66.99
2018-05-18T05:49:01.637Z,66.80
2018-05-18T05:51:29.057Z,66.63
2018-05-18T05:53:56.501Z,66.71
2018-05-18T05:56:23.912Z,66.78
2018-05-18T05:58:51.329Z,66.61
2018-05-18T06:01:18.739Z,66.59
2018-05-18T06:03:46.156Z,66.62
2018-05-18T06:06:13.573Z,66.50
2018-05-18T06:08:40.978Z,66.36
2018-05-18T06:11:08.395Z,66.16
2018-05-18T06:13:35.817Z,66.01
2018-05-18T06:16:03.233Z,65.93
2018-05-18T06:18:30.651Z,65.71
2018-05-18T06:20:58.076Z,65.86
2018-05-18T06:23:25.496Z,65.91
2018-05-18T06:25:52.914Z,65.80
2018-05-18T06:28:20.340Z,65.57
2018-05-18T06:30:47.748Z,65.30
2018-05-18T06:33:15.154Z,65.05
2018-05-18T06:35:42.608Z,64.89
2018-05-18T06:38:10.021Z,64.67
2018-05-18T06:40:37.440Z,64.84
2018-05-18T06:43:04.853Z,64.87
2018-05-18T06:45:32.272Z,64.68
2018-05-18T06:47:59.691Z,64.91
2018-05-18T06:50:27.118Z,64.85
2018-05-18T06:52:54.528Z,64.90
2018-05-18T06:55:21.953Z,64.43
2018-05-18T06:57:49.352Z,64.37
2018-05-18T07:00:16.779Z,64.34
2018-05-18T07:02:44.194Z,64.32
2018-05-18T07:05:11.600Z,64.10
2018-05-18T07:07:39.012Z,63.79
2018-05-18T07:10:06.441Z,64.09
2018-05-18T07:12:33.848Z,64.17
2018-05-18T07:15:01.264Z,63.98
2018-05-18T07:17:28.681Z,63.78
2018-05-18T07:19:56.117Z,63.78
2018-05-18T07:22:23.527Z,63.92
2018-05-18T07:24:50.946Z,64.01
2018-05-18T07:27:18.360Z,63.95
2018-05-18T07:29:45.798Z,63.76
2018-05-18T07:32:13.204Z,63.67
2018-05-18T07:34:40.614Z,63.99
2018-05-18T07:37:08.044Z,63.92
2018-05-18T07:39:35.461Z,63.63
2018-05-18T07:42:02.880Z,63.62
2018-05-18T07:44:30.301Z,63.51
2018-05-18T07:46:57.707Z,63.60
2018-05-18T07:49:25.150Z,63.37
2018-05-18T07:51:52.541Z,63.21
2018-05-18T07:54:19.956Z,63.10
2018-05-18T07:56:47.369Z,62.71
2018-05-18T07:59:14.780Z,62.64
2018-05-18T08:01:42.207Z,62.25
2018-05-18T08:04:09.616Z,62.60
2018-05-18T08:06:37.029Z,62.93
2018-05-18T08:09:04.449Z,62.66
2018-05-18T08:11:31.866Z,62.80
2018-05-18T08:13:59.278Z,62.60
2018-05-18T08:16:26.705Z,62.63
2018-05-18T08:18:54.117Z,62.46
2018-05-18T08:21:21.546Z,62.17
2018-05-18T08:23:48.952Z,62.12
2018-05-18T08:26:16.391Z,61.95
2018-05-18T08:28:55.373Z,61.93
2018-05-18T08:31:22.787Z,61.65
2018-05-18T08:33:50.197Z,61.54
2018-05-18T08:36:17.616Z,61.41
2018-05-18T08:38:45.032Z,61.32
2018-05-18T08:41:12.450Z,60.81
2018-05-18T08:43:39.868Z,61.09
2018-05-18T08:46:07.285Z,60.91
2018-05-18T08:48:34.699Z,61.16
2018-05-18T08:51:02.117Z,60.66
2018-05-18T08:53:29.533Z,60.47
2018-05-18T08:55:56.962Z,60.46
2018-05-18T08:58:24.369Z,60.64
2018-05-18T09:00:51.793Z,60.38
2018-05-18T09:03:19.207Z,60.21
2018-05-18T09:05:46.632Z,60.20
2018-05-18T09:08:14.052Z,59.96
2018-05-18T09:10:41.474Z,59.73
2018-05-18T09:13:08.887Z,59.56
2018-05-18T09:15:36.308Z,59.38
2018-05-18T09:18:03.723Z,58.70
2018-05-18T09:20:31.137Z,58.98
2018-05-18T09:22:58.559Z,58.57
2018-05-18T09:25:25.976Z,57.87
2018-05-18T09:27:53.391Z,58.32
2018-05-18T09:30:20.810Z,58.15
2018-05-18T09:32:48.224Z,58.12
2018-05-18T09:35:15.638Z,57.76
2018-05-18T09:37:43.058Z,57.64
2018-05-18T09:40:10.491Z,57.14
2018-05-18T09:42:37.909Z,57.38
2018-05-18T09:45:05.382Z,57.67
2018-05-18T09:47:32.740Z,57.54
2018-05-18T09:50:00.161Z,57.04
2018-05-18T09:52:27.583Z,57.35
2018-05-18T09:54:55.111Z,56.87
2018-05-18T09:57:22.420Z,56.66
2018-05-18T09:59:49.829Z,56.60
2018-05-18T10:02:17.255Z,56.79
2018-05-18T10:04:44.653Z,56.42
2018-05-18T10:07:12.068Z,56.57
2018-05-18T10:09:39.482Z,56.40
2018-05-18T10:12:06.896Z,56.02
2018-05-18T10:14:34.330Z,56.20
2018-05-18T10:17:01.745Z,56.24
2018-05-18T10:19:29.156Z,55.68
2018-05-18T10:21:56.571Z,55.00
2018-05-18T10:24:23.980Z,55.08
2018-05-18T10:26:51.392Z,55.51
2018-05-18T10:29:18.818Z,55.78
2018-05-18T10:31:46.285Z,54.88
2018-05-18T10:34:13.697Z,56.98
2018-05-18T10:36:41.121Z,57.94
2018-05-18T10:39:08.526Z,57.68
2018-05-18T10:41:35.948Z,57.64
2018-05-18T10:44:03.362Z,54.76
2018-05-18T10:46:30.781Z,54.42
2018-05-18T10:48:58.194Z,54.86
2018-05-18T10:51:25.625Z,55.09
2018-05-18T10:53:53.039Z,55.08
2018-05-18T10:56:20.445Z,54.87
2018-05-18T10:58:47.868Z,55.25
2018-05-18T11:01:15.289Z,55.54
2018-05-18T11:03:42.700Z,55.22
2018-05-18T11:06:10.107Z,55.46
2018-05-18T11:08:37.529Z,55.11
2018-05-18T11:11:04.947Z,55.12
2018-05-18T11:13:32.372Z,54.65
2018-05-18T11:15:59.777Z,54.74
2018-05-18T11:18:27.205Z,54.92
2018-05-18T11:20:54.622Z,54.88
2018-05-18T11:23:22.037Z,64.40
2018-05-18T11:25:49.452Z,59.86
2018-05-18T11:28:16.885Z,56.36
2018-05-18T11:30:44.311Z,55.13
2018-05-18T11:33:11.795Z,54.19
2018-05-18T11:35:39.246Z,54.38
2018-05-18T11:38:06.671Z,53.35
2018-05-18T11:40:34.076Z,51.10
2018-05-18T11:43:01.506Z,49.66
2018-05-18T11:45:28.912Z,50.66
2018-05-18T11:47:57.320Z,50.67
2018-05-18T11:50:24.728Z,51.35
2018-05-18T11:52:52.152Z,52.09
2018-05-18T11:55:19.589Z,52.24
2018-05-18T11:57:46.991Z,52.71
2018-05-18T12:00:14.410Z,52.43
2018-05-18T12:02:41.815Z,52.90
2018-05-18T12:05:09.231Z,52.75
2018-05-18T12:07:36.643Z,53.13
2018-05-18T12:10:04.055Z,53.45
2018-05-18T12:12:31.483Z,53.45
2018-05-18T12:14:58.892Z,53.33
2018-05-18T12:17:26.316Z,53.53
2018-05-18T12:19:53.733Z,52.45
2018-05-18T12:22:21.157Z,51.72
2018-05-18T12:24:48.583Z,52.08
2018-05-18T12:27:16.020Z,52.23
2018-05-18T12:29:43.437Z,51.85
2018-05-18T12:32:10.860Z,51.90
2018-05-18T12:34:38.289Z,52.30
2018-05-18T12:37:05.700Z,52.43
2018-05-18T12:39:33.113Z,52.76
2018-05-18T12:42:00.531Z,52.97
2018-05-18T12:44:27.965Z,53.14
2018-05-18T12:46:55.380Z,52.80
2018-05-18T12:49:22.804Z,52.80
2018-05-18T12:51:50.223Z,52.30
2018-05-18T12:54:17.645Z,52.06
2018-05-18T12:56:45.063Z,52.50
2018-05-18T12:59:12.485Z,52.30
2018-05-18T13:01:39.897Z,52.44
2018-05-18T13:04:07.316Z,52.37
2018-05-18T13:06:34.724Z,52.73
2018-05-18T13:09:02.193Z,52.72
2018-05-18T13:11:29.653Z,52.34
2018-05-18T13:13:57.071Z,52.70
2018-05-18T13:16:24.483Z,52.91
2018-05-18T13:18:51.912Z,52.36
2018-05-18T13:21:19.328Z,52.84
2018-05-18T13:23:46.744Z,52.14
2018-05-18T13:26:14.153Z,52.28
2018-05-18T13:28:41.626Z,51.94
2018-05-18T13:31:09.034Z,51.87
2018-05-18T13:33:36.459Z,51.73
2018-05-18T13:36:03.867Z,51.74
2018-05-18T13:38:31.374Z,52.58
2018-05-18T13:40:58.710Z,51.63
2018-05-18T13:43:26.119Z,51.35
2018-05-18T13:45:53.536Z,51.54
2018-05-18T13:48:20.956Z,51.94
2018-05-18T13:50:48.369Z,52.54
2018-05-18T13:53:15.781Z,53.23
2018-05-18T13:55:43.205Z,52.92
2018-05-18T13:58:10.612Z,53.49
2018-05-18T14:00:38.033Z,53.05
2018-05-18T14:03:05.442Z,53.04
2018-05-18T14:05:32.873Z,52.71
2018-05-18T14:08:00.284Z,52.65
2018-05-18T14:10:27.718Z,52.41
2018-05-18T14:12:55.129Z,53.04
2018-05-18T14:15:22.548Z,52.58
2018-05-18T14:17:56.979Z,52.29
2018-05-18T14:20:25.521Z,52.07
2018-05-18T14:22:52.928Z,52.18
2018-05-18T14:25:20.349Z,52.21
2018-05-18T14:27:47.785Z,52.33
2018-05-18T14:30:15.204Z,52.40
2018-05-18T14:32:42.609Z,52.39
2018-05-18T14:35:10.049Z,52.13
2018-05-18T14:37:37.453Z,52.21
2018-05-18T14:40:04.880Z,52.42
2018-05-18T14:42:32.283Z,52.89
2018-05-18T14:44:59.716Z,53.25
2018-05-18T14:47:27.133Z,52.87
2018-05-18T14:49:54.553Z,53.08
2018-05-18T14:52:21.989Z,53.17
2018-05-18T14:54:49.404Z,52.88
2018-05-18T14:57:16.827Z,52.67
2018-05-18T14:59:44.298Z,52.46
2018-05-18T15:02:11.657Z,52.23
2018-05-18T15:04:39.081Z,52.49
2018-05-18T15:07:11.385Z,52.26
2018-05-18T15:09:42.839Z,52.45
2018-05-18T15:12:14.766Z,52.05
2018-05-18T15:14:45.474Z,52.18
2018-05-18T15:17:12.879Z,51.73
2018-05-18T15:19:40.307Z,51.92
2018-05-18T15:22:07.715Z,52.09
2018-05-18T15:24:35.135Z,52.35
2018-05-18T15:27:02.549Z,52.64
2018-05-18T15:29:29.982Z,52.63
2018-05-18T15:31:57.395Z,52.60
2018-05-18T15:34:24.811Z,52.70
2018-05-18T15:36:52.226Z,52.67
2018-05-18T15:39:19.639Z,52.52
2018-05-18T15:41:52.184Z,52.26
2018-05-18T15:44:35.255Z,52.45
2018-05-18T15:47:06.781Z,52.11
2018-05-18T15:49:40.231Z,52.25
2018-05-18T15:52:12.745Z,52.71
2018-05-18T15:54:43.193Z,52.78
2018-05-18T15:57:13.851Z,52.48
2018-05-18T15:59:45.861Z,52.62
2018-05-18T16:02:23.645Z,52.75
2018-05-18T16:04:58.033Z,53.05
2018-05-18T16:07:28.827Z,53.12
2018-05-18T16:09:56.245Z,53.15
2018-05-18T16:12:23.648Z,52.93
2018-05-18T16:14:51.135Z,53.00
2018-05-18T16:17:18.528Z,53.01
2018-05-18T16:19:45.970Z,52.95
2018-05-18T16:22:13.400Z,53.05
2018-05-18T16:24:40.835Z,53.17
2018-05-18T16:27:08.272Z,53.49
2018-05-18T16:29:35.673Z,53.15
2018-05-18T16:32:03.099Z,53.54
2018-05-18T16:34:30.508Z,53.36
2018-05-18T16:36:57.924Z,53.06
2018-05-18T16:39:25.333Z,53.25
2018-05-18T16:41:52.756Z,53.20
2018-05-18T16:44:20.176Z,53.00
2018-05-18T16:46:47.601Z,53.11
2018-05-18T16:49:15.017Z,53.21
2018-05-18T16:51:42.450Z,53.43
2018-05-18T16:54:09.868Z,52.88
2018-05-18T16:56:37.283Z,52.88
2018-05-18T16:59:04.695Z,53.15
2018-05-18T17:01:32.111Z,53.08
2018-05-18T17:03:59.524Z,53.13
2018-05-18T17:06:27.078Z,53.32
2018-05-18T17:08:54.472Z,53.33
2018-05-18T17:11:21.890Z,53.59
2018-05-18T17:13:49.303Z,53.40
2018-05-18T17:16:16.723Z,53.30
2018-05-18T17:18:44.121Z,53.60
2018-05-18T17:21:11.551Z,53.30
2018-05-18T17:23:38.955Z,53.28
2018-05-18T17:26:06.372Z,53.04
2018-05-18T17:28:33.793Z,53.05
2018-05-18T17:31:01.208Z,52.72
2018-05-18T17:33:28.612Z,52.88
2018-05-18T17:35:56.032Z,52.63
2018-05-18T17:38:23.445Z,53.05
2018-05-18T17:40:50.901Z,53.11
2018-05-18T17:43:18.309Z,52.96
2018-05-18T17:45:45.738Z,52.85
2018-05-18T17:48:13.140Z,52.93
2018-05-18T17:50:40.561Z,52.96
2018-05-18T17:53:08.024Z,52.79
2018-05-18T17:55:48.013Z,52.93
2018-05-18T17:58:15.463Z,52.70
2018-05-18T18:00:42.880Z,52.67
2018-05-18T18:03:10.336Z,52.88
2018-05-18T18:05:37.752Z,53.02
2018-05-18T18:08:05.165Z,52.85
2018-05-18T18:10:32.584Z,52.62
2018-05-18T18:13:00.002Z,53.13
2018-05-18T18:15:27.409Z,53.13
2018-05-18T18:17:55.640Z,53.15
2018-05-18T18:20:23.045Z,53.11
2018-05-18T18:22:50.468Z,53.11
2018-05-18T18:25:17.876Z,53.30
2018-05-18T18:27:45.297Z,53.39
2018-05-18T18:30:12.701Z,53.32
2018-05-18T18:32:44.377Z,53.52
2018-05-18T18:35:14.878Z,53.57
2018-05-18T18:37:42.336Z,53.45
2018-05-18T18:40:09.744Z,53.56
2018-05-18T18:42:37.160Z,53.54
2018-05-18T18:45:04.566Z,53.38
2018-05-18T18:47:31.985Z,53.46
2018-05-18T18:49:59.388Z,53.76
2018-05-18T18:52:26.805Z,53.40
2018-05-18T18:54:54.218Z,53.44
2018-05-18T18:57:21.637Z,53.45
2018-05-18T18:59:49.049Z,53.27
2018-05-18T19:02:16.464Z,53.32
2018-05-18T19:04:43.889Z,53.61
2018-05-18T19:07:11.303Z,53.80
2018-05-18T19:09:38.708Z,53.64
2018-05-18T19:12:06.138Z,53.59
2018-05-18T19:14:38.330Z,53.57
2018-05-18T19:17:08.444Z,53.84
2018-05-18T19:19:39.654Z,54.02
2018-05-18T19:22:10.439Z,53.99
2018-05-18T19:24:42.634Z,53.79
2018-05-18T19:27:19.686Z,53.83
2018-05-18T19:29:51.169Z,53.83
2018-05-18T19:32:21.632Z,53.68
2018-05-18T19:34:51.374Z,53.65
2018-05-18T19:37:22.209Z,53.61
2018-05-18T19:39:50.425Z,53.74
2018-05-18T19:42:19.919Z,54.01
2018-05-18T19:44:48.675Z,53.95
2018-05-18T19:47:19.236Z,54.05
2018-05-18T19:49:54.322Z,54.08
2018-05-18T19:52:23.821Z,54.46
2018-05-18T19:54:55.086Z,54.60
2018-05-18T19:57:25.682Z,54.70
2018-05-18T19:59:55.715Z,54.86
2018-05-18T20:02:26.198Z,54.99
2018-05-18T20:04:57.497Z,55.12
2018-05-18T20:07:29.571Z,55.00
2018-05-18T20:10:00.444Z,55.19
2018-05-18T20:12:32.412Z,55.38
2018-05-18T20:15:05.852Z,55.39
2018-05-18T20:17:37.237Z,55.57
2018-05-18T20:20:06.334Z,55.84
2018-05-18T20:22:34.341Z,55.92
2018-05-18T20:25:03.776Z,56.04
2018-05-18T20:27:31.205Z,55.78
2018-05-18T20:29:58.612Z,55.63
2018-05-18T20:32:26.024Z,55.67
2018-05-18T20:34:53.432Z,55.46
2018-05-18T20:37:20.848Z,55.47
2018-05-18T20:39:48.267Z,55.55
2018-05-18T20:42:15.684Z,55.41
2018-05-18T20:44:43.108Z,55.51
2018-05-18T20:47:10.533Z,55.62
2018-05-18T20:49:37.948Z,55.68
2018-05-18T20:52:05.369Z,55.57
2018-05-18T20:54:32.772Z,55.62
2018-05-18T20:57:00.181Z,55.56
2018-05-18T20:59:27.608Z,55.62
2018-05-18T21:01:55.016Z,55.71
2018-05-18T21:04:22.434Z,55.66
2018-05-18T21:06:49.845Z,55.74
2018-05-18T21:09:17.263Z,55.73
2018-05-18T21:11:44.678Z,55.78
2018-05-18T21:14:12.096Z,55.80
2018-05-18T21:16:39.513Z,55.80
2018-05-18T21:19:06.930Z,55.79
2018-05-18T21:21:34.342Z,55.78
2018-05-18T21:24:01.760Z,55.74
2018-05-18T21:26:29.169Z,55.78
2018-05-18T21:28:56.588Z,56.02
2018-05-18T21:31:24.008Z,56.17
2018-05-18T21:33:51.420Z,56.03
2018-05-18T21:36:18.828Z,56.03
2018-05-18T21:38:46.259Z,56.04
2018-05-18T21:41:13.661Z,56.19
2018-05-18T21:43:41.087Z,56.27
2018-05-18T21:46:08.497Z,56.33
2018-05-18T21:48:35.917Z,56.45
2018-05-18T21:51:03.319Z,56.22
2018-05-18T21:53:30.733Z,56.32
2018-05-18T21:55:58.139Z,56.25
2018-05-18T21:58:25.611Z,56.25
2018-05-18T22:00:52.972Z,56.31
2018-05-18T22:03:20.393Z,56.49
2018-05-18T22:05:47.800Z,56.48
2018-05-18T22:08:15.226Z,56.68
2018-05-18T22:10:42.640Z,56.75
2018-05-18T22:13:10.062Z,56.54
2018-05-18T22:15:37.477Z,56.57
2018-05-18T22:18:04.897Z,56.61
2018-05-18T22:20:32.301Z,56.63
2018-05-18T22:22:59.729Z,56.77
2018-05-18T22:25:27.138Z,56.91
2018-05-18T22:27:54.565Z,56.84
2018-05-18T22:30:21.977Z,56.98
2018-05-18T22:32:49.384Z,57.17
2018-05-18T22:35:16.801Z,57.08
2018-05-18T22:37:44.209Z,57.12
2018-05-18T22:40:11.623Z,57.26
2018-05-18T22:42:39.035Z,57.13
2018-05-18T22:45:06.457Z,57.05
2018-05-18T22:47:33.868Z,57.03
2018-05-18T22:50:01.292Z,57.22
2018-05-18T22:52:28.705Z,57.13
2018-05-18T22:54:56.120Z,57.25
2018-05-18T22:57:23.524Z,57.15
2018-05-18T22:59:50.944Z,57.27
2018-05-18T23:02:18.360Z,57.21
2018-05-18T23:04:45.779Z,57.20
2018-05-18T23:07:13.188Z,57.19
2018-05-18T23:09:40.603Z,57.37
2018-05-18T23:12:08.021Z,57.43
2018-05-18T23:14:35.441Z,57.41
2018-05-18T23:17:02.858Z,57.46
2018-05-18T23:19:30.280Z,57.59
2018-05-18T23:21:57.696Z,57.67
2018-05-18T23:24:25.121Z,57.91
2018-05-18T23:26:52.535Z,57.75
2018-05-18T23:29:19.958Z,57.89
2018-05-18T23:31:47.426Z,57.82
2018-05-18T23:34:14.780Z,57.75
2018-05-18T23:36:42.207Z,57.61
2018-05-18T23:39:09.620Z,57.86
2018-05-18T23:41:37.032Z,57.94
2018-05-18T23:44:04.453Z,58.09
2018-05-18T23:46:31.852Z,57.94
2018-05-18T23:48:59.276Z,57.70
2018-05-18T23:51:26.705Z,57.94
2018-05-18T23:53:54.119Z,58.00
2018-05-18T23:56:21.541Z,58.03
2018-05-18T23:58:48.956Z,58.12
